sensor_id;sensor_type;location;lat;lon;timestamp;temperature;humidity
17331;DHT22;8783;52.448;4.638;2024-03-02T00:02:23;7.80;99.90
17331;DHT22;8783;52.448;4.638;2024-03-02T00:04:48;7.80;99.90
17331;DHT22;8783;52.448;4.638;2024-03-02T00:07:14;7.80;99.90
17331;DHT22;8783;52.448;4.638;2024-03-02T00:09:40;7.80;99.90
17331;DHT22;8783;52.448;4.638;2024-03-02T00:12:06;7.80;99.90
17331;DHT22;8783;52.448;4.638;2024-03-02T00:14:32;7.80;99.90
17331;DHT22;8783;52.448;4.638;2024-03-02T00:16:59;7.80;99.90
17331;DHT22;8783;52.448;4.638;2024-03-02T00:19:24;7.80;99.90
17331;DHT22;8783;52.448;4.638;2024-03-02T00:21:50;7.80;99.90
17331;DHT22;8783;52.448;4.638;2024-03-02T00:26:45;7.80;99.90
17331;DHT22;8783;52.448;4.638;2024-03-02T00:29:17;7.80;99.90
17331;DHT22;8783;52.448;4.638;2024-03-02T00:31:44;7.80;99.90
17331;DHT22;8783;52.448;4.638;2024-03-02T00:34:13;7.80;99.90
17331;DHT22;8783;52.448;4.638;2024-03-02T00:36:39;7.80;99.90
17331;DHT22;8783;52.448;4.638;2024-03-02T00:39:05;7.80;99.90
17331;DHT22;8783;52.448;4.638;2024-03-02T00:41:33;7.80;99.90
17331;DHT22;8783;52.448;4.638;2024-03-02T00:44:03;7.80;99.90
17331;DHT22;8783;52.448;4.638;2024-03-02T00:46:34;7.80;99.90
17331;DHT22;8783;52.448;4.638;2024-03-02T00:49:05;7.80;99.90
17331;DHT22;8783;52.448;4.638;2024-03-02T00:51:32;7.80;99.90
17331;DHT22;8783;52.448;4.638;2024-03-02T00:54:03;7.80;99.90
17331;DHT22;8783;52.448;4.638;2024-03-02T00:56:30;7.70;99.90
17331;DHT22;8783;52.448;4.638;2024-03-02T00:58:56;7.80;99.90
17331;DHT22;8783;52.448;4.638;2024-03-02T01:01:22;7.70;99.90
17331;DHT22;8783;52.448;4.638;2024-03-02T01:03:48;7.70;99.90
17331;DHT22;8783;52.448;4.638;2024-03-02T01:06:14;7.70;99.90
17331;DHT22;8783;52.448;4.638;2024-03-02T01:08:41;7.70;99.90
17331;DHT22;8783;52.448;4.638;2024-03-02T01:11:07;7.70;99.90
17331;DHT22;8783;52.448;4.638;2024-03-02T01:13:32;7.70;99.90
17331;DHT22;8783;52.448;4.638;2024-03-02T01:15:58;7.70;99.90
17331;DHT22;8783;52.448;4.638;2024-03-02T01:18:24;7.70;99.90
17331;DHT22;8783;52.448;4.638;2024-03-02T01:20:50;7.70;99.90
17331;DHT22;8783;52.448;4.638;2024-03-02T01:23:22;7.70;99.90
17331;DHT22;8783;52.448;4.638;2024-03-02T01:25:47;7.70;99.90
17331;DHT22;8783;52.448;4.638;2024-03-02T01:28:14;7.70;99.90
17331;DHT22;8783;52.448;4.638;2024-03-02T01:30:39;7.70;99.90
17331;DHT22;8783;52.448;4.638;2024-03-02T01:33:05;7.70;99.90
17331;DHT22;8783;52.448;4.638;2024-03-02T01:35:34;7.70;99.90
17331;DHT22;8783;52.448;4.638;2024-03-02T01:38:03;7.70;99.90
17331;DHT22;8783;52.448;4.638;2024-03-02T01:40:32;7.70;99.90
17331;DHT22;8783;52.448;4.638;2024-03-02T01:42:57;7.70;99.90
17331;DHT22;8783;52.448;4.638;2024-03-02T01:45:25;7.60;99.90
17331;DHT22;8783;52.448;4.638;2024-03-02T01:47:52;7.60;99.90
17331;DHT22;8783;52.448;4.638;2024-03-02T01:50:32;7.70;99.90
17331;DHT22;8783;52.448;4.638;2024-03-02T01:52:58;7.60;99.90
17331;DHT22;8783;52.448;4.638;2024-03-02T01:55:24;7.60;99.90
17331;DHT22;8783;52.448;4.638;2024-03-02T01:57:50;7.60;99.90
17331;DHT22;8783;52.448;4.638;2024-03-02T02:00:16;7.70;99.90
17331;DHT22;8783;52.448;4.638;2024-03-02T02:02:43;7.60;99.90
17331;DHT22;8783;52.448;4.638;2024-03-02T02:05:09;7.60;99.90
17331;DHT22;8783;52.448;4.638;2024-03-02T02:07:35;7.60;99.90
17331;DHT22;8783;52.448;4.638;2024-03-02T02:10:01;7.60;99.90
17331;DHT22;8783;52.448;4.638;2024-03-02T02:12:27;7.60;99.90
17331;DHT22;8783;52.448;4.638;2024-03-02T02:14:53;7.60;99.90
17331;DHT22;8783;52.448;4.638;2024-03-02T02:17:19;7.60;99.90
17331;DHT22;8783;52.448;4.638;2024-03-02T02:19:45;7.60;99.90
17331;DHT22;8783;52.448;4.638;2024-03-02T02:22:11;7.60;99.90
17331;DHT22;8783;52.448;4.638;2024-03-02T02:24:40;7.50;99.90
17331;DHT22;8783;52.448;4.638;2024-03-02T02:27:07;7.50;99.90
17331;DHT22;8783;52.448;4.638;2024-03-02T02:29:32;7.50;99.90
17331;DHT22;8783;52.448;4.638;2024-03-02T02:31:58;7.50;99.90
17331;DHT22;8783;52.448;4.638;2024-03-02T02:34:23;7.50;99.90
17331;DHT22;8783;52.448;4.638;2024-03-02T02:36:49;7.50;99.90
17331;DHT22;8783;52.448;4.638;2024-03-02T02:39:16;7.50;99.90
17331;DHT22;8783;52.448;4.638;2024-03-02T02:41:43;7.50;99.90
17331;DHT22;8783;52.448;4.638;2024-03-02T02:44:09;7.50;99.90
17331;DHT22;8783;52.448;4.638;2024-03-02T02:46:40;7.50;99.90
17331;DHT22;8783;52.448;4.638;2024-03-02T02:49:06;7.50;99.90
17331;DHT22;8783;52.448;4.638;2024-03-02T02:51:32;7.50;99.90
17331;DHT22;8783;52.448;4.638;2024-03-02T02:53:58;7.40;99.90
17331;DHT22;8783;52.448;4.638;2024-03-02T02:56:24;7.40;99.90
17331;DHT22;8783;52.448;4.638;2024-03-02T02:58:49;7.40;99.90
17331;DHT22;8783;52.448;4.638;2024-03-02T03:01:16;7.40;99.90
17331;DHT22;8783;52.448;4.638;2024-03-02T03:03:45;7.40;99.90
17331;DHT22;8783;52.448;4.638;2024-03-02T03:06:11;7.40;99.90
17331;DHT22;8783;52.448;4.638;2024-03-02T03:08:37;7.40;99.90
17331;DHT22;8783;52.448;4.638;2024-03-02T03:11:03;7.40;99.90
17331;DHT22;8783;52.448;4.638;2024-03-02T03:13:30;7.40;99.90
17331;DHT22;8783;52.448;4.638;2024-03-02T03:15:56;7.40;99.90
17331;DHT22;8783;52.448;4.638;2024-03-02T03:18:21;7.40;99.90
17331;DHT22;8783;52.448;4.638;2024-03-02T03:20:47;7.40;99.90
17331;DHT22;8783;52.448;4.638;2024-03-02T03:23:12;7.40;99.90
17331;DHT22;8783;52.448;4.638;2024-03-02T03:25:43;7.40;99.90
17331;DHT22;8783;52.448;4.638;2024-03-02T03:28:09;7.40;99.90
17331;DHT22;8783;52.448;4.638;2024-03-02T03:30:38;7.40;99.90
17331;DHT22;8783;52.448;4.638;2024-03-02T03:33:04;7.40;99.90
17331;DHT22;8783;52.448;4.638;2024-03-02T03:35:31;7.30;99.90
17331;DHT22;8783;52.448;4.638;2024-03-02T03:37:57;7.30;99.90
17331;DHT22;8783;52.448;4.638;2024-03-02T03:40:23;7.30;99.90
17331;DHT22;8783;52.448;4.638;2024-03-02T03:42:48;7.30;99.90
17331;DHT22;8783;52.448;4.638;2024-03-02T03:45:15;7.30;99.90
17331;DHT22;8783;52.448;4.638;2024-03-02T03:47:41;7.30;99.90
17331;DHT22;8783;52.448;4.638;2024-03-02T03:50:07;7.30;99.90
17331;DHT22;8783;52.448;4.638;2024-03-02T03:52:33;7.30;99.90
17331;DHT22;8783;52.448;4.638;2024-03-02T03:54:59;7.30;99.90
17331;DHT22;8783;52.448;4.638;2024-03-02T03:57:25;7.30;99.90
17331;DHT22;8783;52.448;4.638;2024-03-02T03:59:51;7.30;99.90
17331;DHT22;8783;52.448;4.638;2024-03-02T04:02:17;7.30;99.90
17331;DHT22;8783;52.448;4.638;2024-03-02T04:04:42;7.30;99.90
17331;DHT22;8783;52.448;4.638;2024-03-02T04:07:09;7.30;99.90
17331;DHT22;8783;52.448;4.638;2024-03-02T04:09:34;7.30;99.90
17331;DHT22;8783;52.448;4.638;2024-03-02T04:12:00;7.30;99.90
17331;DHT22;8783;52.448;4.638;2024-03-02T04:14:25;7.30;99.90
17331;DHT22;8783;52.448;4.638;2024-03-02T04:16:51;7.30;99.90
17331;DHT22;8783;52.448;4.638;2024-03-02T04:19:17;7.30;99.90
17331;DHT22;8783;52.448;4.638;2024-03-02T04:21:42;7.30;99.90
17331;DHT22;8783;52.448;4.638;2024-03-02T04:24:08;7.30;99.90
17331;DHT22;8783;52.448;4.638;2024-03-02T04:26:33;7.30;99.90
17331;DHT22;8783;52.448;4.638;2024-03-02T04:28:59;7.20;99.90
17331;DHT22;8783;52.448;4.638;2024-03-02T04:31:24;7.20;99.90
17331;DHT22;8783;52.448;4.638;2024-03-02T04:33:50;7.20;99.90
17331;DHT22;8783;52.448;4.638;2024-03-02T04:36:15;7.20;99.90
17331;DHT22;8783;52.448;4.638;2024-03-02T04:38:41;7.20;99.90
17331;DHT22;8783;52.448;4.638;2024-03-02T04:41:07;7.20;99.90
17331;DHT22;8783;52.448;4.638;2024-03-02T04:43:33;7.20;99.90
17331;DHT22;8783;52.448;4.638;2024-03-02T04:45:59;7.20;99.90
17331;DHT22;8783;52.448;4.638;2024-03-02T04:48:25;7.20;99.90
17331;DHT22;8783;52.448;4.638;2024-03-02T04:50:51;7.20;99.90
17331;DHT22;8783;52.448;4.638;2024-03-02T04:53:17;7.20;99.90
17331;DHT22;8783;52.448;4.638;2024-03-02T04:55:42;7.20;99.90
17331;DHT22;8783;52.448;4.638;2024-03-02T04:58:08;7.20;99.90
17331;DHT22;8783;52.448;4.638;2024-03-02T05:00:34;7.20;99.90
17331;DHT22;8783;52.448;4.638;2024-03-02T05:03:00;7.20;99.90
17331;DHT22;8783;52.448;4.638;2024-03-02T05:05:26;7.20;99.90
17331;DHT22;8783;52.448;4.638;2024-03-02T05:07:52;7.10;99.90
17331;DHT22;8783;52.448;4.638;2024-03-02T05:10:18;7.10;99.90
17331;DHT22;8783;52.448;4.638;2024-03-02T05:12:43;7.10;99.90
17331;DHT22;8783;52.448;4.638;2024-03-02T05:15:10;7.10;99.90
17331;DHT22;8783;52.448;4.638;2024-03-02T05:17:39;7.10;99.90
17331;DHT22;8783;52.448;4.638;2024-03-02T05:20:06;7.10;99.90
17331;DHT22;8783;52.448;4.638;2024-03-02T05:22:36;7.10;99.90
17331;DHT22;8783;52.448;4.638;2024-03-02T05:25:03;7.10;99.90
17331;DHT22;8783;52.448;4.638;2024-03-02T05:27:28;7.10;99.90
17331;DHT22;8783;52.448;4.638;2024-03-02T05:29:54;7.00;99.90
17331;DHT22;8783;52.448;4.638;2024-03-02T05:32:20;7.00;99.90
17331;DHT22;8783;52.448;4.638;2024-03-02T05:34:45;7.00;99.90
17331;DHT22;8783;52.448;4.638;2024-03-02T05:37:11;7.00;99.90
17331;DHT22;8783;52.448;4.638;2024-03-02T05:39:37;7.00;99.90
17331;DHT22;8783;52.448;4.638;2024-03-02T05:42:02;7.00;99.90
17331;DHT22;8783;52.448;4.638;2024-03-02T05:44:28;7.00;99.90
17331;DHT22;8783;52.448;4.638;2024-03-02T05:46:54;7.00;99.90
17331;DHT22;8783;52.448;4.638;2024-03-02T05:49:20;7.00;99.90
17331;DHT22;8783;52.448;4.638;2024-03-02T05:51:45;7.00;99.90
17331;DHT22;8783;52.448;4.638;2024-03-02T05:54:11;7.00;99.90
17331;DHT22;8783;52.448;4.638;2024-03-02T05:56:36;7.00;99.90
17331;DHT22;8783;52.448;4.638;2024-03-02T05:59:02;7.00;99.90
17331;DHT22;8783;52.448;4.638;2024-03-02T06:01:45;7.00;99.90
17331;DHT22;8783;52.448;4.638;2024-03-02T06:04:17;7.00;99.90
17331;DHT22;8783;52.448;4.638;2024-03-02T06:06:42;7.00;99.90
17331;DHT22;8783;52.448;4.638;2024-03-02T06:09:08;7.00;99.90
17331;DHT22;8783;52.448;4.638;2024-03-02T06:11:38;7.00;99.90
17331;DHT22;8783;52.448;4.638;2024-03-02T06:14:05;7.00;99.90
17331;DHT22;8783;52.448;4.638;2024-03-02T06:16:31;6.90;99.90
17331;DHT22;8783;52.448;4.638;2024-03-02T06:18:57;7.00;99.90
17331;DHT22;8783;52.448;4.638;2024-03-02T06:21:24;7.00;99.90
17331;DHT22;8783;52.448;4.638;2024-03-02T06:23:49;7.00;99.90
17331;DHT22;8783;52.448;4.638;2024-03-02T06:26:15;6.90;99.90
17331;DHT22;8783;52.448;4.638;2024-03-02T06:28:41;6.90;99.90
17331;DHT22;8783;52.448;4.638;2024-03-02T06:31:06;6.90;99.90
17331;DHT22;8783;52.448;4.638;2024-03-02T06:33:32;6.90;99.90
17331;DHT22;8783;52.448;4.638;2024-03-02T06:35:58;6.90;99.90
17331;DHT22;8783;52.448;4.638;2024-03-02T06:38:23;6.90;99.90
17331;DHT22;8783;52.448;4.638;2024-03-02T06:40:49;6.90;99.90
17331;DHT22;8783;52.448;4.638;2024-03-02T06:43:15;6.90;99.90
17331;DHT22;8783;52.448;4.638;2024-03-02T06:45:40;6.90;99.90
17331;DHT22;8783;52.448;4.638;2024-03-02T06:48:06;6.90;99.90
17331;DHT22;8783;52.448;4.638;2024-03-02T06:50:32;6.90;99.90
17331;DHT22;8783;52.448;4.638;2024-03-02T06:52:58;6.90;99.90
17331;DHT22;8783;52.448;4.638;2024-03-02T06:55:23;6.90;99.90
17331;DHT22;8783;52.448;4.638;2024-03-02T06:57:52;6.90;99.90
17331;DHT22;8783;52.448;4.638;2024-03-02T07:00:18;6.90;99.90
17331;DHT22;8783;52.448;4.638;2024-03-02T07:02:45;6.90;99.90
17331;DHT22;8783;52.448;4.638;2024-03-02T07:05:11;6.90;99.90
17331;DHT22;8783;52.448;4.638;2024-03-02T07:07:37;6.90;99.90
17331;DHT22;8783;52.448;4.638;2024-03-02T07:10:06;6.90;99.90
17331;DHT22;8783;52.448;4.638;2024-03-02T07:12:33;6.90;99.90
17331;DHT22;8783;52.448;4.638;2024-03-02T07:14:58;6.90;99.90
17331;DHT22;8783;52.448;4.638;2024-03-02T07:17:30;7.00;99.90
17331;DHT22;8783;52.448;4.638;2024-03-02T07:19:56;7.00;99.90
17331;DHT22;8783;52.448;4.638;2024-03-02T07:22:22;7.00;99.90
17331;DHT22;8783;52.448;4.638;2024-03-02T07:24:48;7.00;99.90
17331;DHT22;8783;52.448;4.638;2024-03-02T07:27:15;7.00;99.90
17331;DHT22;8783;52.448;4.638;2024-03-02T07:29:41;7.00;99.90
17331;DHT22;8783;52.448;4.638;2024-03-02T07:32:08;7.00;99.90
17331;DHT22;8783;52.448;4.638;2024-03-02T07:34:34;7.00;99.90
17331;DHT22;8783;52.448;4.638;2024-03-02T07:36:59;7.00;99.90
17331;DHT22;8783;52.448;4.638;2024-03-02T07:39:25;7.10;99.90
17331;DHT22;8783;52.448;4.638;2024-03-02T07:41:51;7.00;99.90
17331;DHT22;8783;52.448;4.638;2024-03-02T07:44:17;7.00;99.90
17331;DHT22;8783;52.448;4.638;2024-03-02T07:46:48;7.10;99.90
17331;DHT22;8783;52.448;4.638;2024-03-02T07:49:18;7.10;99.90
17331;DHT22;8783;52.448;4.638;2024-03-02T07:51:44;7.10;99.90
17331;DHT22;8783;52.448;4.638;2024-03-02T07:54:10;7.10;99.90
17331;DHT22;8783;52.448;4.638;2024-03-02T07:56:36;7.10;99.90
17331;DHT22;8783;52.448;4.638;2024-03-02T07:59:02;7.10;99.90
17331;DHT22;8783;52.448;4.638;2024-03-02T08:01:31;7.10;99.90
17331;DHT22;8783;52.448;4.638;2024-03-02T08:04:01;7.20;99.90
17331;DHT22;8783;52.448;4.638;2024-03-02T08:06:29;7.20;99.90
17331;DHT22;8783;52.448;4.638;2024-03-02T08:08:59;7.20;99.90
17331;DHT22;8783;52.448;4.638;2024-03-02T08:11:24;7.20;99.90
17331;DHT22;8783;52.448;4.638;2024-03-02T08:13:50;7.20;99.90
17331;DHT22;8783;52.448;4.638;2024-03-02T08:16:17;7.20;99.90
17331;DHT22;8783;52.448;4.638;2024-03-02T08:18:49;7.20;99.90
17331;DHT22;8783;52.448;4.638;2024-03-02T08:21:15;7.20;99.90
17331;DHT22;8783;52.448;4.638;2024-03-02T08:23:42;7.20;99.90
17331;DHT22;8783;52.448;4.638;2024-03-02T08:26:09;7.20;99.90
17331;DHT22;8783;52.448;4.638;2024-03-02T08:28:35;7.20;99.90
17331;DHT22;8783;52.448;4.638;2024-03-02T08:31:03;7.20;99.90
17331;DHT22;8783;52.448;4.638;2024-03-02T08:33:28;7.30;99.90
17331;DHT22;8783;52.448;4.638;2024-03-02T08:35:54;7.30;99.90
17331;DHT22;8783;52.448;4.638;2024-03-02T08:38:20;7.30;99.90
17331;DHT22;8783;52.448;4.638;2024-03-02T08:40:45;7.30;99.90
17331;DHT22;8783;52.448;4.638;2024-03-02T08:43:11;7.30;99.90
17331;DHT22;8783;52.448;4.638;2024-03-02T08:45:37;7.30;99.90
17331;DHT22;8783;52.448;4.638;2024-03-02T08:48:06;7.40;99.90
17331;DHT22;8783;52.448;4.638;2024-03-02T08:50:32;7.40;99.90
17331;DHT22;8783;52.448;4.638;2024-03-02T08:52:58;7.40;99.90
17331;DHT22;8783;52.448;4.638;2024-03-02T08:55:24;7.40;99.90
17331;DHT22;8783;52.448;4.638;2024-03-02T08:57:50;7.40;99.90
17331;DHT22;8783;52.448;4.638;2024-03-02T09:00:16;7.50;99.90
17331;DHT22;8783;52.448;4.638;2024-03-02T09:02:44;7.50;99.90
17331;DHT22;8783;52.448;4.638;2024-03-02T09:05:10;7.50;99.90
17331;DHT22;8783;52.448;4.638;2024-03-02T09:07:36;7.50;99.90
17331;DHT22;8783;52.448;4.638;2024-03-02T09:10:01;7.50;99.90
17331;DHT22;8783;52.448;4.638;2024-03-02T09:12:27;7.60;99.90
17331;DHT22;8783;52.448;4.638;2024-03-02T09:14:52;7.60;99.90
17331;DHT22;8783;52.448;4.638;2024-03-02T09:17:18;7.60;99.90
17331;DHT22;8783;52.448;4.638;2024-03-02T09:19:43;7.60;99.90
17331;DHT22;8783;52.448;4.638;2024-03-02T09:22:09;7.60;99.90
17331;DHT22;8783;52.448;4.638;2024-03-02T09:24:35;7.70;99.90
17331;DHT22;8783;52.448;4.638;2024-03-02T09:27:00;7.70;99.90
17331;DHT22;8783;52.448;4.638;2024-03-02T09:29:26;7.70;99.90
17331;DHT22;8783;52.448;4.638;2024-03-02T09:31:51;7.70;99.90
17331;DHT22;8783;52.448;4.638;2024-03-02T09:34:17;7.80;99.90
17331;DHT22;8783;52.448;4.638;2024-03-02T09:36:43;7.80;99.90
17331;DHT22;8783;52.448;4.638;2024-03-02T09:39:09;7.80;99.90
17331;DHT22;8783;52.448;4.638;2024-03-02T09:41:36;7.80;99.90
17331;DHT22;8783;52.448;4.638;2024-03-02T09:44:03;7.90;99.90
17331;DHT22;8783;52.448;4.638;2024-03-02T09:46:28;7.90;99.90
17331;DHT22;8783;52.448;4.638;2024-03-02T09:48:54;7.90;99.90
17331;DHT22;8783;52.448;4.638;2024-03-02T09:51:20;7.90;99.90
17331;DHT22;8783;52.448;4.638;2024-03-02T09:53:47;7.90;99.90
17331;DHT22;8783;52.448;4.638;2024-03-02T09:56:12;8.00;99.90
17331;DHT22;8783;52.448;4.638;2024-03-02T09:58:39;8.00;99.90
17331;DHT22;8783;52.448;4.638;2024-03-02T10:01:07;8.00;99.90
17331;DHT22;8783;52.448;4.638;2024-03-02T10:03:34;8.00;99.90
17331;DHT22;8783;52.448;4.638;2024-03-02T10:08:44;8.10;99.90
17331;DHT22;8783;52.448;4.638;2024-03-02T10:11:09;8.10;99.90
17331;DHT22;8783;52.448;4.638;2024-03-02T10:13:36;8.10;99.90
17331;DHT22;8783;52.448;4.638;2024-03-02T10:16:11;8.10;99.90
17331;DHT22;8783;52.448;4.638;2024-03-02T10:18:37;8.10;99.90
17331;DHT22;8783;52.448;4.638;2024-03-02T10:21:13;8.20;99.90
17331;DHT22;8783;52.448;4.638;2024-03-02T10:23:39;8.20;99.90
17331;DHT22;8783;52.448;4.638;2024-03-02T10:26:17;8.30;99.90
17331;DHT22;8783;52.448;4.638;2024-03-02T10:28:47;8.30;99.90
17331;DHT22;8783;52.448;4.638;2024-03-02T10:31:25;8.30;99.90
17331;DHT22;8783;52.448;4.638;2024-03-02T10:33:59;8.30;99.90
17331;DHT22;8783;52.448;4.638;2024-03-02T10:36:25;8.40;99.90
17331;DHT22;8783;52.448;4.638;2024-03-02T10:38:51;8.40;99.90
17331;DHT22;8783;52.448;4.638;2024-03-02T10:41:23;8.40;99.90
17331;DHT22;8783;52.448;4.638;2024-03-02T10:43:52;8.50;99.90
17331;DHT22;8783;52.448;4.638;2024-03-02T10:46:21;8.50;99.90
17331;DHT22;8783;52.448;4.638;2024-03-02T10:48:48;8.50;99.90
17331;DHT22;8783;52.448;4.638;2024-03-02T10:51:14;8.50;99.90
17331;DHT22;8783;52.448;4.638;2024-03-02T10:53:40;8.60;99.90
17331;DHT22;8783;52.448;4.638;2024-03-02T10:56:07;8.60;99.90
17331;DHT22;8783;52.448;4.638;2024-03-02T10:58:35;8.60;99.90
17331;DHT22;8783;52.448;4.638;2024-03-02T11:01:05;8.70;99.90
17331;DHT22;8783;52.448;4.638;2024-03-02T11:03:35;8.70;99.90
17331;DHT22;8783;52.448;4.638;2024-03-02T11:06:07;8.70;99.90
17331;DHT22;8783;52.448;4.638;2024-03-02T11:08:34;8.70;99.90
17331;DHT22;8783;52.448;4.638;2024-03-02T11:11:13;8.70;99.90
17331;DHT22;8783;52.448;4.638;2024-03-02T11:13:42;8.80;99.90
17331;DHT22;8783;52.448;4.638;2024-03-02T11:16:18;8.80;99.90
17331;DHT22;8783;52.448;4.638;2024-03-02T11:18:46;8.90;99.90
17331;DHT22;8783;52.448;4.638;2024-03-02T11:21:12;8.90;99.90
17331;DHT22;8783;52.448;4.638;2024-03-02T11:23:38;8.90;99.90
17331;DHT22;8783;52.448;4.638;2024-03-02T11:26:20;9.00;99.90
17331;DHT22;8783;52.448;4.638;2024-03-02T11:28:46;9.00;99.90
17331;DHT22;8783;52.448;4.638;2024-03-02T11:31:12;9.00;99.90
17331;DHT22;8783;52.448;4.638;2024-03-02T11:33:37;9.10;99.90
17331;DHT22;8783;52.448;4.638;2024-03-02T11:36:03;9.10;99.90
17331;DHT22;8783;52.448;4.638;2024-03-02T11:38:31;9.10;99.90
17331;DHT22;8783;52.448;4.638;2024-03-02T11:41:00;9.20;99.90
17331;DHT22;8783;52.448;4.638;2024-03-02T11:43:27;9.20;99.90
17331;DHT22;8783;52.448;4.638;2024-03-02T11:46:00;9.20;99.90
17331;DHT22;8783;52.448;4.638;2024-03-02T11:48:29;9.20;99.90
17331;DHT22;8783;52.448;4.638;2024-03-02T11:50:58;9.30;99.90
17331;DHT22;8783;52.448;4.638;2024-03-02T11:53:27;9.30;99.90
17331;DHT22;8783;52.448;4.638;2024-03-02T11:55:55;9.30;99.90
17331;DHT22;8783;52.448;4.638;2024-03-02T11:58:21;9.40;99.90
17331;DHT22;8783;52.448;4.638;2024-03-02T12:00:55;9.40;99.90
17331;DHT22;8783;52.448;4.638;2024-03-02T12:03:25;9.40;99.90
17331;DHT22;8783;52.448;4.638;2024-03-02T12:05:52;9.50;99.90
17331;DHT22;8783;52.448;4.638;2024-03-02T12:08:18;9.50;99.90
17331;DHT22;8783;52.448;4.638;2024-03-02T12:11:01;9.60;99.90
17331;DHT22;8783;52.448;4.638;2024-03-02T12:13:28;9.60;99.90
17331;DHT22;8783;52.448;4.638;2024-03-02T12:15:54;9.70;99.90
17331;DHT22;8783;52.448;4.638;2024-03-02T12:18:23;9.70;99.90
17331;DHT22;8783;52.448;4.638;2024-03-02T12:20:50;9.80;99.90
17331;DHT22;8783;52.448;4.638;2024-03-02T12:23:18;9.90;99.90
17331;DHT22;8783;52.448;4.638;2024-03-02T12:25:45;9.90;99.90
17331;DHT22;8783;52.448;4.638;2024-03-02T12:28:11;9.90;99.90
17331;DHT22;8783;52.448;4.638;2024-03-02T12:30:36;10.00;99.90
17331;DHT22;8783;52.448;4.638;2024-03-02T12:33:02;10.00;99.90
17331;DHT22;8783;52.448;4.638;2024-03-02T12:35:29;10.10;99.90
17331;DHT22;8783;52.448;4.638;2024-03-02T12:37:55;10.10;99.90
17331;DHT22;8783;52.448;4.638;2024-03-02T12:40:21;10.20;99.90
17331;DHT22;8783;52.448;4.638;2024-03-02T12:42:48;10.20;99.90
17331;DHT22;8783;52.448;4.638;2024-03-02T12:45:14;10.30;99.90
17331;DHT22;8783;52.448;4.638;2024-03-02T12:47:41;10.30;99.90
17331;DHT22;8783;52.448;4.638;2024-03-02T12:50:07;10.40;99.90
17331;DHT22;8783;52.448;4.638;2024-03-02T12:52:33;10.40;99.90
17331;DHT22;8783;52.448;4.638;2024-03-02T12:55:04;10.50;99.90
17331;DHT22;8783;52.448;4.638;2024-03-02T12:57:31;10.50;99.90
17331;DHT22;8783;52.448;4.638;2024-03-02T13:00:05;10.60;99.90
17331;DHT22;8783;52.448;4.638;2024-03-02T13:02:41;10.60;99.90
17331;DHT22;8783;52.448;4.638;2024-03-02T13:05:07;10.60;99.90
17331;DHT22;8783;52.448;4.638;2024-03-02T13:07:40;10.70;99.90
17331;DHT22;8783;52.448;4.638;2024-03-02T13:10:10;10.70;99.90
17331;DHT22;8783;52.448;4.638;2024-03-02T13:12:37;10.80;99.90
17331;DHT22;8783;52.448;4.638;2024-03-02T13:15:04;10.80;99.90
17331;DHT22;8783;52.448;4.638;2024-03-02T13:17:30;10.80;99.90
17331;DHT22;8783;52.448;4.638;2024-03-02T13:19:59;10.80;99.90
17331;DHT22;8783;52.448;4.638;2024-03-02T13:22:26;10.90;99.90
17331;DHT22;8783;52.448;4.638;2024-03-02T13:24:52;10.90;99.90
17331;DHT22;8783;52.448;4.638;2024-03-02T13:27:20;10.90;99.90
17331;DHT22;8783;52.448;4.638;2024-03-02T13:29:48;10.90;99.90
17331;DHT22;8783;52.448;4.638;2024-03-02T13:32:14;10.90;99.90
17331;DHT22;8783;52.448;4.638;2024-03-02T13:34:40;10.90;99.90
17331;DHT22;8783;52.448;4.638;2024-03-02T13:37:06;10.90;99.90
17331;DHT22;8783;52.448;4.638;2024-03-02T13:39:32;10.90;99.90
17331;DHT22;8783;52.448;4.638;2024-03-02T13:42:01;10.90;99.90
17331;DHT22;8783;52.448;4.638;2024-03-02T13:44:31;10.90;99.90
17331;DHT22;8783;52.448;4.638;2024-03-02T13:46:58;10.90;99.90
17331;DHT22;8783;52.448;4.638;2024-03-02T13:49:24;10.90;99.90
17331;DHT22;8783;52.448;4.638;2024-03-02T13:51:54;10.90;99.90
17331;DHT22;8783;52.448;4.638;2024-03-02T13:54:20;10.90;99.90
17331;DHT22;8783;52.448;4.638;2024-03-02T13:56:46;10.90;99.90
17331;DHT22;8783;52.448;4.638;2024-03-02T13:59:12;11.00;99.90
17331;DHT22;8783;52.448;4.638;2024-03-02T14:01:38;11.00;99.90
17331;DHT22;8783;52.448;4.638;2024-03-02T14:04:03;10.90;99.90
17331;DHT22;8783;52.448;4.638;2024-03-02T14:06:29;11.00;99.90
17331;DHT22;8783;52.448;4.638;2024-03-02T14:08:55;11.00;99.90
17331;DHT22;8783;52.448;4.638;2024-03-02T14:11:20;11.00;99.90
17331;DHT22;8783;52.448;4.638;2024-03-02T14:13:46;11.00;99.90
17331;DHT22;8783;52.448;4.638;2024-03-02T14:16:19;11.00;99.90
17331;DHT22;8783;52.448;4.638;2024-03-02T14:18:45;11.00;99.90
17331;DHT22;8783;52.448;4.638;2024-03-02T14:21:11;11.00;99.90
17331;DHT22;8783;52.448;4.638;2024-03-02T14:23:36;11.00;99.90
17331;DHT22;8783;52.448;4.638;2024-03-02T14:26:02;11.00;99.90
17331;DHT22;8783;52.448;4.638;2024-03-02T14:28:28;11.00;99.90
17331;DHT22;8783;52.448;4.638;2024-03-02T14:30:54;11.00;99.90
17331;DHT22;8783;52.448;4.638;2024-03-02T14:33:20;11.00;99.90
17331;DHT22;8783;52.448;4.638;2024-03-02T14:35:46;11.00;99.90
17331;DHT22;8783;52.448;4.638;2024-03-02T14:38:12;11.00;99.90
17331;DHT22;8783;52.448;4.638;2024-03-02T14:40:41;11.00;99.90
17331;DHT22;8783;52.448;4.638;2024-03-02T14:43:06;10.90;99.90
17331;DHT22;8783;52.448;4.638;2024-03-02T14:45:32;10.90;99.90
17331;DHT22;8783;52.448;4.638;2024-03-02T14:48:00;10.90;99.90
17331;DHT22;8783;52.448;4.638;2024-03-02T14:50:27;10.90;99.90
17331;DHT22;8783;52.448;4.638;2024-03-02T14:52:53;10.90;99.90
17331;DHT22;8783;52.448;4.638;2024-03-02T14:55:19;11.00;99.90
17331;DHT22;8783;52.448;4.638;2024-03-02T14:57:45;11.00;99.90
17331;DHT22;8783;52.448;4.638;2024-03-02T15:00:11;11.00;99.90
17331;DHT22;8783;52.448;4.638;2024-03-02T15:02:37;11.00;99.90
17331;DHT22;8783;52.448;4.638;2024-03-02T15:05:03;11.00;99.90
17331;DHT22;8783;52.448;4.638;2024-03-02T15:07:31;11.00;99.90
17331;DHT22;8783;52.448;4.638;2024-03-02T15:09:57;11.00;99.90
17331;DHT22;8783;52.448;4.638;2024-03-02T15:12:22;11.00;99.90
17331;DHT22;8783;52.448;4.638;2024-03-02T15:14:48;11.00;99.90
17331;DHT22;8783;52.448;4.638;2024-03-02T15:17:14;11.00;99.90
17331;DHT22;8783;52.448;4.638;2024-03-02T15:19:44;11.00;99.90
17331;DHT22;8783;52.448;4.638;2024-03-02T15:22:10;11.00;99.90
17331;DHT22;8783;52.448;4.638;2024-03-02T15:24:36;11.00;99.90
17331;DHT22;8783;52.448;4.638;2024-03-02T15:27:02;11.00;99.90
17331;DHT22;8783;52.448;4.638;2024-03-02T15:29:32;11.00;99.90
17331;DHT22;8783;52.448;4.638;2024-03-02T15:31:58;11.00;99.90
17331;DHT22;8783;52.448;4.638;2024-03-02T15:34:27;11.00;99.90
17331;DHT22;8783;52.448;4.638;2024-03-02T15:36:56;11.00;99.90
17331;DHT22;8783;52.448;4.638;2024-03-02T15:39:22;11.00;99.90
17331;DHT22;8783;52.448;4.638;2024-03-02T15:41:48;11.00;99.90
17331;DHT22;8783;52.448;4.638;2024-03-02T15:44:13;11.00;99.90
17331;DHT22;8783;52.448;4.638;2024-03-02T15:46:39;11.00;99.90
17331;DHT22;8783;52.448;4.638;2024-03-02T15:49:05;11.00;99.90
17331;DHT22;8783;52.448;4.638;2024-03-02T15:51:33;11.00;99.90
17331;DHT22;8783;52.448;4.638;2024-03-02T15:54:01;11.00;99.90
17331;DHT22;8783;52.448;4.638;2024-03-02T15:56:27;11.00;99.90
17331;DHT22;8783;52.448;4.638;2024-03-02T15:58:53;11.00;99.90
17331;DHT22;8783;52.448;4.638;2024-03-02T16:01:18;11.00;99.90